Terminal Aerodrome Forecast
Issued by NWS Newport/Morehead City, NC

Home | Current Version | Previous Version | Graphics & Text | Print | Product List | Glossary On
Versions: 1 2 3 4 5 6 7 8 9 10 11 12 13 14 15 16 17
298
FTUS42 KMHX 250537
TAFEWN
TAF
KEWN 250537Z 2506/2606 00000KT 3SM BR SCT015
      TEMPO 2506/2509 3/4SM BR BKN015
     FM250900 00000KT 3/4SM BR BKN007
     FM251230 00000KT 5SM BR SCT250
     FM251400 VRB03KT P6SM SCT250
     FM251800 21011G20KT P6SM SCT150
     FM260200 30010G20KT P6SM SCT140=

USA.gov is the U.S. government's official web portal to all federal, state and local government web resources and services.